Weather at Daniel K Inouye International Airport

Public forecast

Using degrees Fahrenheit for public forecast. Weather courtesy of forecast.io.

Current aviation weather report (METAR) for Daniel K Inouye International Airport

Report is more than 2 hours old.

Retrieved 2021/03/04 09:53 UTC (2 hours ago):

PHNL 040953Z 03005KT 10SM FEW025 SCT065 BKN080 20/16 A3012

Aviation forecast (TAF) for Daniel K Inouye International Airport

Retrieved 2021/03/04 06:24 UTC (6 hours ago):

TAF PHNL 040522Z 0406/0512 05011G17KT P6SM VCSH FEW025 SCT040 BKN050 TEMPO 0406/0408 P6SM -SHRA FM042000 04010G18KT P6SM FEW025 SCT050 FM050500 04007KT P6SM SCT025 BKN045